Wetterdaten: Woche 31.07.23 - 06.08.23 (KW31)
Datum Zeit Temp. Aussen Temp. o. S. Temp +5cm Feuchte Auss Luftdruck Regen Sonnenschein Regendauer Solar Windben Empfang
31.07.2023 00:00 16,3 C 15,5 C 11,7 C 97 % 1012,2 hPa 0,4 l/m 0,00 h 1,00 h 0 W/m 21,6 km/h (4 Bft) 97,14 %
31.07.2023 01:00 16,4 C 15,6 C 11,7 C 97 % 1012,0 hPa 0,0 l/m 0,00 h 0,67 h 0 W/m 20,2 km/h (4 Bft) 96,28 %
31.07.2023 02:00 16,4 C 15,6 C 11,7 C 97 % 1011,9 hPa 0,0 l/m 0,00 h 0,43 h 0 W/m 17,1 km/h (3 Bft) 98,89 %
31.07.2023 03:00 16,4 C 15,6 C 11,5 C 95 % 1011,7 hPa 0,2 l/m 0,00 h 0,00 h 0 W/m 16,4 km/h (3 Bft) 96,81 %
31.07.2023 04:00 16,5 C 15,6 C 11,3 C 93 % 1011,3 hPa 0,0 l/m 0,00 h 0,00 h 0 W/m 16,1 km/h (3 Bft) 97,84 %
31.07.2023 05:00 16,8 C 16,1 C 11,8 C 93 % 1011,0 hPa 0,0 l/m 0,00 h 0,00 h 0 W/m 15,3 km/h (3 Bft) 97,37 %
31.07.2023 06:00 17,0 C 16,1 C 12,4 C 93 % 1010,5 hPa 0,0 l/m 0,00 h 0,10 h 14 W/m 16,8 km/h (3 Bft) 97,80 %
31.07.2023 07:00 17,2 C 16,7 C 13,0 C 93 % 1010,0 hPa 0,0 l/m 0,00 h 0,17 h 31 W/m 20,4 km/h (4 Bft) 96,44 %
31.07.2023 08:00 17,0 C 15,9 C 12,2 C 94 % 1009,8 hPa 0,8 l/m 0,00 h 0,50 h 40 W/m 20,2 km/h (4 Bft) 99,36 %
31.07.2023 09:00 16,6 C 15,5 C 12,1 C 96 % 1009,6 hPa 1,8 l/m 0,00 h 0,83 h 67 W/m 22,1 km/h (4 Bft) 96,79 %
31.07.2023 10:00 16,5 C 16,0 C 12,2 C 97 % 1009,1 hPa 0,0 l/m 0,00 h 0,30 h 134 W/m 25,1 km/h (4 Bft) 97,63 %
31.07.2023 11:00 16,7 C 16,0 C 12,6 C 98 % 1009,0 hPa 1,2 l/m 0,00 h 0,63 h 120 W/m 22,6 km/h (4 Bft) 97,70 %
31.07.2023 12:00 17,1 C 16,8 C 12,9 C 98 % 1008,7 hPa 0,0 l/m 0,00 h 0,00 h 155 W/m 21,9 km/h (4 Bft) 96,04 %
31.07.2023 13:00 17,7 C 17,4 C 12,8 C 96 % 1008,5 hPa 0,0 l/m 0,00 h 0,00 h 134 W/m 21,8 km/h (4 Bft) 96,88 %
31.07.2023 14:00 18,0 C 17,6 C 13,0 C 94 % 1008,3 hPa 0,0 l/m 0,00 h 0,20 h 110 W/m 19,9 km/h (4 Bft) 98,86 %
31.07.2023 15:00 18,7 C 18,7 C 13,6 C 94 % 1007,6 hPa 0,0 l/m 0,00 h 0,10 h 167 W/m 20,2 km/h (4 Bft) 96,20 %
31.07.2023 16:00 19,2 C 18,5 C 14,5 C 89 % 1007,2 hPa 0,0 l/m 0,00 h 0,03 h 68 W/m 24,0 km/h (4 Bft) 98,57 %
31.07.2023 17:00 19,2 C 18,3 C 14,2 C 88 % 1006,8 hPa 0,4 l/m 0,00 h 0,50 h 54 W/m 24,3 km/h (4 Bft) 98,08 %
31.07.2023 18:00 18,2 C 17,3 C 12,8 C 93 % 1006,0 hPa 0,2 l/m 0,00 h 0,67 h 37 W/m 22,0 km/h (4 Bft) 95,68 %
31.07.2023 19:00 17,6 C 16,4 C 12,8 C 95 % 1005,1 hPa 2,4 l/m 0,00 h 0,93 h 18 W/m 21,9 km/h (4 Bft) 98,02 %
31.07.2023 20:00 17,2 C 16,1 C 12,8 C 98 % 1004,4 hPa 1,8 l/m 0,00 h 0,83 h 8 W/m 20,6 km/h (4 Bft) 97,84 %
31.07.2023 21:00 17,2 C 16,1 C 12,8 C 98 % 1003,4 hPa 0,6 l/m 0,00 h 0,40 h 0 W/m 21,6 km/h (4 Bft) 94,62 %
31.07.2023 22:00 17,3 C 16,1 C 13,0 C 98 % 1003,1 hPa 0,0 l/m 0,00 h 0,07 h 0 W/m 21,0 km/h (4 Bft) 98,58 %
31.07.2023 23:00 17,3 C 16,1 C 13,2 C 98 % 1002,2 hPa 0,6 l/m 0,00 h 0,40 h 0 W/m 15,2 km/h (3 Bft) 97,87 %
01.08.2023 00:00 17,3 C 16,1 C 13,3 C 98 % 1000,9 hPa 3,6 l/m 0,00 h 0,87 h 0 W/m 5,6 km/h (1 Bft) 95,96 %
01.08.2023 01:00 17,3 C 16,1 C 13,3 C 99 % 999,9 hPa 4,2 l/m 0,00 h 0,83 h 0 W/m 6,3 km/h (2 Bft) 99,00 %
01.08.2023 02:00 17,1 C 16,1 C 13,3 C 99 % 999,3 hPa 1,6 l/m 0,00 h 0,50 h 0 W/m 3,7 km/h (1 Bft) 96,61 %
01.08.2023 03:00 17,0 C 16,0 C 13,3 C 99 % 998,7 hPa 0,2 l/m 0,00 h 0,37 h 0 W/m 5,5 km/h (1 Bft) 97,09 %
01.08.2023 04:00 16,1 C 15,2 C 12,6 C 99 % 998,7 hPa 0,2 l/m 0,00 h 0,27 h 0 W/m 12,2 km/h (2 Bft) 98,36 %
01.08.2023 05:00 15,5 C 14,5 C 11,9 C 99 % 999,3 hPa 0,0 l/m 0,00 h 0,00 h 0 W/m 12,2 km/h (2 Bft) 97,01 %
01.08.2023 06:00 15,2 C 14,4 C 11,7 C 99 % 999,5 hPa 0,0 l/m 0,00 h 0,00 h 7 W/m 11,7 km/h (2 Bft) 96,41 %
01.08.2023 07:00 15,2 C 14,7 C 11,7 C 99 % 999,8 hPa 0,0 l/m 0,00 h 0,00 h 29 W/m 10,6 km/h (2 Bft) 99,30 %
01.08.2023 08:00 15,5 C 15,6 C 12,0 C 98 % 1000,1 hPa 0,0 l/m 0,00 h 0,00 h 95 W/m 13,2 km/h (3 Bft) 95,59 %
01.08.2023 09:00 16,5 C 16,8 C 12,3 C 95 % 1000,4 hPa 0,0 l/m 0,17 h 0,00 h 181 W/m 15,2 km/h (3 Bft) 98,65 %
01.08.2023 10:00 17,3 C 17,4 C 13,5 C 90 % 1000,6 hPa 0,0 l/m 0,27 h 0,00 h 295 W/m 15,4 km/h (3 Bft) 98,08 %
01.08.2023 11:00 18,4 C 18,9 C 14,8 C 87 % 1000,7 hPa 0,2 l/m 0,27 h 0,07 h 322 W/m 17,6 km/h (3 Bft) 96,40 %
01.08.2023 12:00 19,0 C 19,5 C 15,6 C 83 % 1000,8 hPa 0,0 l/m 0,07 h 0,20 h 292 W/m 17,9 km/h (3 Bft) 97,05 %
01.08.2023 13:00 18,7 C 18,4 C 14,1 C 82 % 1001,4 hPa 0,0 l/m 0,07 h 0,30 h 194 W/m 19,0 km/h (3 Bft) 99,07 %
01.08.2023 14:00 18,9 C 21,2 C 15,0 C 81 % 1001,6 hPa 0,0 l/m 0,60 h 0,00 h 511 W/m 17,7 km/h (3 Bft) 96,59 %
01.08.2023 15:00 20,9 C 22,9 C 16,6 C 72 % 1001,6 hPa 0,0 l/m 0,67 h 0,00 h 562 W/m 21,2 km/h (4 Bft) 97,98 %
01.08.2023 16:00 21,2 C 22,0 C 16,9 C 71 % 1001,8 hPa 0,0 l/m 0,47 h 0,00 h 361 W/m 20,7 km/h (4 Bft) 96,87 %
01.08.2023 17:00 21,2 C 21,9 C 16,9 C 68 % 1002,1 hPa 0,0 l/m 0,43 h 0,00 h 298 W/m 20,1 km/h (4 Bft) 99,23 %
01.08.2023 18:00 21,3 C 22,9 C 17,2 C 67 % 1002,4 hPa 0,0 l/m 0,67 h 0,00 h 303 W/m 17,0 km/h (3 Bft) 95,92 %
01.08.2023 19:00 20,6 C 20,2 C 16,2 C 68 % 1002,8 hPa 0,0 l/m 0,30 h 0,00 h 122 W/m 15,4 km/h (3 Bft) 97,86 %
01.08.2023 20:00 19,4 C 18,5 C 14,9 C 72 % 1003,3 hPa 0,0 l/m 0,00 h 0,00 h 33 W/m 12,3 km/h (3 Bft) 98,15 %
01.08.2023 21:00 18,6 C 17,7 C 14,1 C 77 % 1003,8 hPa 0,0 l/m 0,00 h 0,00 h 5 W/m 12,4 km/h (3 Bft) 96,66 %
01.08.2023 22:00 17,8 C 16,9 C 13,5 C 81 % 1004,1 hPa 0,0 l/m 0,00 h 0,00 h 0 W/m 7,7 km/h (2 Bft) 96,94 %
01.08.2023 23:00 17,2 C 16,0 C 12,8 C 84 % 1003,8 hPa 0,0 l/m 0,00 h 0,00 h 0 W/m 0,4 km/h (0 Bft) 98,86 %
02.08.2023 00:00 16,7 C 15,6 C 12,8 C 88 % 1003,5 hPa 0,0 l/m 0,00 h 0,00 h 0 W/m 2,0 km/h (1 Bft) 95,72 %
02.08.2023 01:00 16,4 C 15,6 C 12,3 C 89 % 1003,2 hPa 0,0 l/m 0,00 h 0,00 h 0 W/m 11,5 km/h (2 Bft) 98,44 %
02.08.2023 02:00 15,9 C 14,9 C 11,8 C 90 % 1002,5 hPa 0,0 l/m 0,00 h 0,00 h 0 W/m 14,3 km/h (3 Bft) 97,77 %
02.08.2023 03:00 15,6 C 14,8 C 11,7 C 91 % 1002,0 hPa 0,0 l/m 0,00 h 0,00 h 0 W/m 10,2 km/h (2 Bft) 96,93 %
02.08.2023 04:00 15,8 C 15,0 C 12,0 C 92 % 1001,1 hPa 0,0 l/m 0,00 h 0,00 h 0 W/m 5,1 km/h (1 Bft) 97,65 %
02.08.2023 05:00 15,9 C 15,1 C 11,8 C 92 % 1000,1 hPa 0,0 l/m 0,00 h 0,00 h 5 W/m 3,4 km/h (1 Bft) 97,86 %
02.08.2023 06:00 15,8 C 15,0 C 11,5 C 92 % 999,1 hPa 0,0 l/m 0,00 h 0,23 h 11 W/m 7,4 km/h (2 Bft) 96,76 %
02.08.2023 07:00 15,8 C 15,0 C 11,3 C 95 % 997,6 hPa 0,4 l/m 0,00 h 0,50 h 29 W/m 13,4 km/h (3 Bft) 98,30 %
02.08.2023 08:00 15,8 C 15,0 C 11,2 C 97 % 996,4 hPa 1,2 l/m 0,00 h 0,87 h 50 W/m 13,5 km/h (3 Bft) 95,46 %
02.08.2023 09:00 16,2 C 15,5 C 11,9 C 98 % 994,7 hPa 0,2 l/m 0,00 h 0,23 h 122 W/m 15,0 km/h (3 Bft) 96,72 %
02.08.2023 10:00 16,8 C 16,7 C 12,6 C 98 % 993,7 hPa 0,0 l/m 0,00 h 0,17 h 177 W/m 17,9 km/h (3 Bft) 98,96 %
02.08.2023 11:00 17,7 C 17,3 C 13,4 C 99 % 992,9 hPa 0,2 l/m 0,00 h 0,23 h 162 W/m 14,3 km/h (3 Bft) 96,95 %
02.08.2023 12:00 18,6 C 18,9 C 14,6 C 99 % 992,2 hPa 0,4 l/m 0,10 h 0,10 h 273 W/m 12,9 km/h (3 Bft) 97,82 %
02.08.2023 13:00 19,6 C 19,3 C 15,2 C 99 % 991,1 hPa 1,6 l/m 0,00 h 0,30 h 163 W/m 9,7 km/h (2 Bft) 98,36 %
02.08.2023 14:00 20,2 C 20,0 C 15,7 C 98 % 990,4 hPa 1,0 l/m 0,07 h 0,27 h 261 W/m 17,5 km/h (3 Bft) 96,80 %
02.08.2023 15:00 21,4 C 21,9 C 15,9 C 91 % 990,7 hPa 0,2 l/m 0,13 h 0,07 h 264 W/m 17,9 km/h (3 Bft) 97,72 %
02.08.2023 16:00 22,3 C 24,9 C 17,1 C 80 % 990,5 hPa 0,0 l/m 0,83 h 0,00 h 627 W/m 17,0 km/h (3 Bft) 99,20 %
02.08.2023 17:00 21,6 C 21,8 C 16,2 C 82 % 990,8 hPa 0,8 l/m 0,20 h 0,27 h 175 W/m 12,9 km/h (3 Bft) 94,92 %
02.08.2023 18:00 21,5 C 23,6 C 14,3 C 79 % 991,0 hPa 0,0 l/m 0,73 h 0,00 h 296 W/m 15,0 km/h (3 Bft) 99,16 %
02.08.2023 19:00 20,5 C 19,1 C 14,7 C 78 % 991,8 hPa 1,2 l/m 0,03 h 0,53 h 61 W/m 17,5 km/h (3 Bft) 98,93 %
02.08.2023 20:00 17,6 C 16,7 C 12,3 C 92 % 992,1 hPa 0,0 l/m 0,20 h 0,07 h 33 W/m 12,8 km/h (3 Bft) 95,18 %
02.08.2023 21:00 17,5 C 16,7 C 12,2 C 92 % 992,3 hPa 0,0 l/m 0,00 h 0,23 h 5 W/m 9,6 km/h (2 Bft) 98,22 %
02.08.2023 22:00 17,6 C 16,7 C 12,2 C 91 % 992,3 hPa 0,2 l/m 0,00 h 0,27 h 0 W/m 15,1 km/h (3 Bft) 97,77 %
02.08.2023 23:00 17,5 C 16,0 C 11,7 C 90 % 992,3 hPa 1,4 l/m 0,00 h 0,67 h 0 W/m 24,0 km/h (4 Bft) 94,01 %
03.08.2023 00:00 16,8 C 15,4 C 11,7 C 93 % 992,1 hPa 0,0 l/m 0,00 h 0,17 h 0 W/m 26,4 km/h (4 Bft) 98,83 %
03.08.2023 01:00 16,7 C 15,5 C 11,4 C 92 % 991,8 hPa 0,4 l/m 0,00 h 0,70 h 0 W/m 35,8 km/h (5 Bft) 96,95 %
03.08.2023 02:00 16,7 C 15,8 C 11,1 C 92 % 992,1 hPa 0,6 l/m 0,00 h 0,67 h 0 W/m 36,8 km/h (5 Bft) 97,22 %
03.08.2023 03:00 16,2 C 14,8 C 11,7 C 96 % 993,0 hPa 0,6 l/m 0,00 h 0,40 h 0 W/m 25,3 km/h (4 Bft) 97,80 %
03.08.2023 04:00 16,1 C 14,9 C 11,5 C 96 % 993,7 hPa 0,2 l/m 0,00 h 0,53 h 0 W/m 25,1 km/h (4 Bft) 97,38 %
03.08.2023 05:00 16,2 C 15,6 C 11,1 C 94 % 994,0 hPa 0,0 l/m 0,00 h 0,00 h 0 W/m 29,5 km/h (5 Bft) 97,03 %
03.08.2023 06:00 16,6 C 15,9 C 11,1 C 91 % 994,5 hPa 0,0 l/m 0,00 h 0,00 h 13 W/m 32,2 km/h (5 Bft) 97,55 %
03.08.2023 07:00 16,6 C 15,4 C 11,3 C 92 % 994,9 hPa 1,4 l/m 0,00 h 0,67 h 42 W/m 30,4 km/h (5 Bft) 98,19 %
03.08.2023 08:00 15,9 C 14,8 C 11,6 C 96 % 995,7 hPa 1,0 l/m 0,00 h 0,93 h 42 W/m 29,7 km/h (5 Bft) 97,02 %
03.08.2023 09:00 16,4 C 15,8 C 12,2 C 97 % 997,0 hPa 0,2 l/m 0,10 h 0,07 h 163 W/m 19,3 km/h (3 Bft) 97,32 %
03.08.2023 10:00 16,7 C 16,1 C 12,3 C 96 % 997,9 hPa 0,0 l/m 0,00 h 0,70 h 124 W/m 20,4 km/h (4 Bft) 97,80 %
03.08.2023 11:00 17,7 C 18,0 C 13,3 C 93 % 998,6 hPa 0,0 l/m 0,30 h 0,10 h 299 W/m 21,0 km/h (4 Bft) 97,51 %
03.08.2023 12:00 17,8 C 17,5 C 13,2 C 93 % 999,5 hPa 0,0 l/m 0,00 h 0,80 h 215 W/m 21,0 km/h (4 Bft) 97,31 %
03.08.2023 13:00 18,8 C 19,6 C 14,9 C 90 % 1000,2 hPa 0,0 l/m 0,53 h 0,03 h 446 W/m 21,7 km/h (4 Bft) 97,74 %
03.08.2023 14:00 19,0 C 18,9 C 15,4 C 87 % 1001,3 hPa 0,0 l/m 0,00 h 0,00 h 252 W/m 21,3 km/h (4 Bft) 97,90 %
03.08.2023 15:00 18,7 C 18,5 C 14,8 C 90 % 1002,3 hPa 0,4 l/m 0,07 h 0,13 h 176 W/m 17,7 km/h (3 Bft) 97,82 %
03.08.2023 16:00 18,4 C 18,3 C 13,7 C 94 % 1003,6 hPa 0,0 l/m 0,00 h 0,47 h 191 W/m 17,6 km/h (3 Bft) 95,56 %
03.08.2023 17:00 18,5 C 18,5 C 14,4 C 91 % 1004,6 hPa 0,0 l/m 0,00 h 0,23 h 192 W/m 15,8 km/h (3 Bft) 98,89 %
03.08.2023 18:00 18,7 C 18,6 C 15,0 C 89 % 1005,1 hPa 0,0 l/m 0,03 h 0,17 h 146 W/m 12,0 km/h (2 Bft) 97,61 %
03.08.2023 19:00 18,4 C 17,9 C 14,0 C 88 % 1006,1 hPa 0,2 l/m 0,17 h 0,17 h 79 W/m 13,7 km/h (3 Bft) 96,25 %
03.08.2023 20:00 17,2 C 16,3 C 12,5 C 92 % 1007,3 hPa 0,4 l/m 0,00 h 0,10 h 15 W/m 9,0 km/h (2 Bft) 97,79 %
03.08.2023 21:00 16,6 C 15,6 C 12,2 C 94 % 1008,1 hPa 0,0 l/m 0,00 h 0,00 h 5 W/m 3,6 km/h (1 Bft) 98,35 %
03.08.2023 22:00 16,3 C 15,4 C 12,1 C 95 % 1008,9 hPa 0,0 l/m 0,00 h 0,00 h 0 W/m 1,8 km/h (1 Bft) 95,51 %
03.08.2023 23:00 15,9 C 15,0 C 12,1 C 95 % 1009,5 hPa 0,0 l/m 0,00 h 0,00 h 0 W/m 2,1 km/h (1 Bft) 99,72 %
04.08.2023 00:00 15,7 C 15,0 C 12,2 C 95 % 1009,8 hPa 0,0 l/m 0,00 h 0,00 h 0 W/m 3,1 km/h (1 Bft) 96,97 %
04.08.2023 01:00 15,5 C 14,7 C 11,8 C 94 % 1010,2 hPa 0,0 l/m 0,00 h 0,00 h 0 W/m 2,0 km/h (1 Bft) 95,52 %
04.08.2023 02:00 15,1 C 14,4 C 11,5 C 94 % 1010,5 hPa 0,0 l/m 0,00 h 0,00 h 0 W/m 4,1 km/h (1 Bft) 98,64 %
04.08.2023 03:00 14,8 C 13,9 C 11,1 C 95 % 1010,9 hPa 0,0 l/m 0,00 h 0,00 h 0 W/m 4,4 km/h (1 Bft) 97,06 %
04.08.2023 04:00 14,8 C 13,9 C 11,1 C 96 % 1011,1 hPa 0,0 l/m 0,00 h 0,00 h 0 W/m 3,6 km/h (1 Bft) 97,86 %
04.08.2023 05:00 14,5 C 13,8 C 10,9 C 96 % 1011,5 hPa 0,0 l/m 0,00 h 0,00 h 0 W/m 2,5 km/h (1 Bft) 97,61 %
04.08.2023 06:00 14,3 C 13,9 C 10,8 C 97 % 1011,9 hPa 0,0 l/m 0,00 h 0,00 h 16 W/m 1,8 km/h (1 Bft) 98,25 %
04.08.2023 07:00 14,6 C 14,3 C 11,4 C 97 % 1012,2 hPa 0,0 l/m 0,00 h 0,00 h 53 W/m 3,2 km/h (1 Bft) 96,44 %
04.08.2023 08:00 15,1 C 15,2 C 11,9 C 96 % 1012,8 hPa 0,0 l/m 0,00 h 0,00 h 86 W/m 3,2 km/h (1 Bft) 96,56 %
04.08.2023 09:00 16,1 C 16,8 C 13,2 C 95 % 1013,4 hPa 0,0 l/m 0,10 h 0,00 h 209 W/m 3,0 km/h (1 Bft) 96,61 %
04.08.2023 10:00 17,8 C 19,9 C 14,5 C 90 % 1013,6 hPa 0,0 l/m 0,63 h 0,00 h 434 W/m 7,4 km/h (2 Bft) 98,21 %
04.08.2023 11:00 19,1 C 20,8 C 15,5 C 84 % 1013,9 hPa 0,0 l/m 0,60 h 0,00 h 451 W/m 8,3 km/h (2 Bft) 98,22 %
04.08.2023 12:00 20,2 C 21,1 C 16,7 C 77 % 1013,9 hPa 0,0 l/m 0,47 h 0,00 h 388 W/m 8,3 km/h (2 Bft) 96,80 %
04.08.2023 13:00 20,6 C 21,3 C 16,8 C 73 % 1014,1 hPa 0,0 l/m 0,50 h 0,00 h 432 W/m 11,1 km/h (2 Bft) 97,05 %
04.08.2023 14:00 22,3 C 26,5 C 17,7 C 70 % 1014,2 hPa 0,0 l/m 0,63 h 0,00 h 666 W/m 11,9 km/h (2 Bft) 99,43 %
04.08.2023 15:00 19,6 C 20,3 C 14,3 C 83 % 1014,7 hPa 0,2 l/m 0,30 h 0,50 h 355 W/m 8,8 km/h (2 Bft) 96,63 %
04.08.2023 16:00 20,2 C 20,6 C 14,4 C 84 % 1014,8 hPa 1,0 l/m 0,30 h 0,23 h 225 W/m 6,7 km/h (2 Bft) 97,66 %
04.08.2023 17:00 19,0 C 19,3 C 13,0 C 89 % 1015,0 hPa 7,6 l/m 0,37 h 0,43 h 293 W/m 9,0 km/h (2 Bft) 97,42 %
04.08.2023 18:00 19,8 C 21,9 C 13,0 C 84 % 1015,3 hPa 0,2 l/m 0,50 h 0,00 h 255 W/m 10,0 km/h (2 Bft) 98,08 %
04.08.2023 19:00 19,2 C 18,2 C 12,4 C 84 % 1015,6 hPa 0,0 l/m 0,07 h 0,00 h 90 W/m 2,6 km/h (1 Bft) 96,87 %
04.08.2023 20:00 18,7 C 17,5 C 12,4 C 87 % 1016,1 hPa 0,0 l/m 0,00 h 0,00 h 32 W/m 1,9 km/h (1 Bft) 98,28 %
04.08.2023 21:00 17,9 C 16,3 C 12,2 C 89 % 1016,6 hPa 0,0 l/m 0,00 h 0,00 h 6 W/m 0,5 km/h (0 Bft) 96,65 %
04.08.2023 22:00 16,8 C 15,1 C 11,8 C 92 % 1016,9 hPa 0,0 l/m 0,00 h 0,00 h 0 W/m 0,1 km/h (0 Bft) 98,01 %
04.08.2023 23:00 16,1 C 15,0 C 11,5 C 93 % 1017,3 hPa 0,0 l/m 0,00 h 0,00 h 0 W/m 0,3 km/h (0 Bft) 96,80 %
05.08.2023 00:00 16,1 C 15,5 C 11,7 C 93 % 1017,5 hPa 0,0 l/m 0,00 h 0,00 h 0 W/m 0,2 km/h (0 Bft) 93,20 %
05.08.2023 01:00 16,0 C 15,0 C 11,7 C 93 % 1017,4 hPa 0,0 l/m 0,00 h 0,00 h 0 W/m 2,0 km/h (1 Bft) 98,86 %
05.08.2023 02:00 15,7 C 14,7 C 11,4 C 93 % 1017,0 hPa 0,0 l/m 0,00 h 0,00 h 0 W/m 1,4 km/h (1 Bft) 97,27 %
05.08.2023 03:00 15,0 C 13,4 C 10,5 C 93 % 1016,7 hPa 0,0 l/m 0,00 h 0,00 h 0 W/m 0,0 km/h (0 Bft) 96,33 %
05.08.2023 04:00 14,1 C 12,6 C 9,7 C 95 % 1016,6 hPa 0,0 l/m 0,00 h 0,00 h 0 W/m 0,0 km/h (0 Bft) 98,29 %
05.08.2023 05:00 13,7 C 12,4 C 9,4 C 96 % 1016,3 hPa 0,0 l/m 0,00 h 0,00 h 0 W/m 0,0 km/h (0 Bft) 98,29 %
05.08.2023 06:00 13,5 C 12,7 C 9,6 C 97 % 1015,9 hPa 0,0 l/m 0,00 h 0,00 h 23 W/m 0,4 km/h (0 Bft) 96,68 %
05.08.2023 07:00 14,1 C 14,0 C 10,9 C 98 % 1015,4 hPa 0,0 l/m 0,00 h 0,00 h 63 W/m 2,1 km/h (1 Bft) 97,66 %
05.08.2023 08:00 14,9 C 15,8 C 11,9 C 98 % 1015,6 hPa 0,0 l/m 0,17 h 0,00 h 153 W/m 4,6 km/h (1 Bft) 97,47 %
05.08.2023 09:00 17,1 C 22,8 C 14,7 C 92 % 1015,2 hPa 0,0 l/m 0,93 h 0,00 h 459 W/m 9,0 km/h (2 Bft) 97,62 %
05.08.2023 10:00 18,6 C 20,0 C 15,1 C 84 % 1014,5 hPa 0,0 l/m 0,83 h 0,00 h 426 W/m 10,8 km/h (2 Bft) 98,30 %
05.08.2023 11:00 19,9 C 21,4 C 16,4 C 77 % 1013,5 hPa 0,0 l/m 0,60 h 0,00 h 528 W/m 12,4 km/h (3 Bft) 97,08 %
05.08.2023 12:00 20,8 C 22,0 C 17,6 C 72 % 1012,7 hPa 0,0 l/m 0,40 h 0,00 h 388 W/m 12,8 km/h (3 Bft) 96,58 %
05.08.2023 13:00 21,4 C 22,9 C 17,7 C 69 % 1011,9 hPa 0,0 l/m 0,73 h 0,00 h 478 W/m 15,5 km/h (3 Bft) 99,47 %
05.08.2023 14:00 20,3 C 19,3 C 15,0 C 76 % 1011,2 hPa 2,0 l/m 0,07 h 0,17 h 174 W/m 9,9 km/h (2 Bft) 96,79 %
05.08.2023 15:00 17,6 C 16,6 C 12,6 C 92 % 1010,7 hPa 0,2 l/m 0,00 h 0,27 h 72 W/m 1,3 km/h (1 Bft) 97,86 %
05.08.2023 16:00 17,2 C 16,8 C 11,9 C 91 % 1010,3 hPa 0,0 l/m 0,00 h 0,03 h 95 W/m 6,4 km/h (2 Bft) 97,93 %
05.08.2023 17:00 17,3 C 17,1 C 11,7 C 87 % 1009,6 hPa 0,0 l/m 0,00 h 0,40 h 126 W/m 6,2 km/h (2 Bft) 97,08 %
05.08.2023 18:00 17,1 C 16,2 C 11,2 C 88 % 1009,1 hPa 0,4 l/m 0,00 h 0,30 h 62 W/m 3,0 km/h (1 Bft) 97,86 %
05.08.2023 19:00 16,7 C 16,1 C 11,2 C 91 % 1008,5 hPa 0,0 l/m 0,00 h 0,03 h 66 W/m 7,7 km/h (2 Bft) 98,18 %
05.08.2023 20:00 16,0 C 15,2 C 10,9 C 90 % 1007,9 hPa 0,0 l/m 0,00 h 0,00 h 11 W/m 10,7 km/h (2 Bft) 94,94 %
05.08.2023 21:00 15,7 C 15,1 C 11,7 C 91 % 1007,3 hPa 0,0 l/m 0,00 h 0,00 h 3 W/m 6,1 km/h (2 Bft) 98,36 %
05.08.2023 22:00 15,9 C 15,0 C 11,7 C 92 % 1006,9 hPa 0,0 l/m 0,00 h 0,00 h 0 W/m 7,3 km/h (2 Bft) 98,93 %
05.08.2023 23:00 15,9 C 15,0 C 11,7 C 93 % 1006,3 hPa 0,0 l/m 0,00 h 0,00 h 0 W/m 8,1 km/h (2 Bft) 94,50 %
06.08.2023 00:00 15,6 C 15,0 C 11,7 C 91 % 1005,5 hPa 0,0 l/m 0,00 h 0,00 h 0 W/m 6,8 km/h (2 Bft) 99,12 %
06.08.2023 01:00 15,6 C 15,0 C 11,7 C 91 % 1005,0 hPa 0,0 l/m 0,00 h 0,00 h 0 W/m 5,7 km/h (1 Bft) 97,32 %
06.08.2023 02:00 15,7 C 14,8 C 11,5 C 91 % 1004,5 hPa 0,0 l/m 0,00 h 0,00 h 0 W/m 4,1 km/h (1 Bft) 96,80 %
06.08.2023 03:00 15,5 C 14,9 C 11,6 C 92 % 1004,4 hPa 0,0 l/m 0,00 h 0,00 h 0 W/m 5,7 km/h (1 Bft) 98,20 %
06.08.2023 04:00 15,5 C 14,4 C 11,1 C 93 % 1004,0 hPa 0,0 l/m 0,00 h 0,00 h 0 W/m 2,9 km/h (1 Bft) 97,03 %
06.08.2023 05:00 15,3 C 14,4 C 11,1 C 94 % 1003,7 hPa 0,0 l/m 0,00 h 0,00 h 0 W/m 0,1 km/h (0 Bft) 96,83 %
06.08.2023 06:00 15,2 C 14,4 C 10,8 C 95 % 1003,6 hPa 0,0 l/m 0,00 h 0,00 h 17 W/m 1,5 km/h (1 Bft) 98,53 %
06.08.2023 07:00 15,3 C 15,0 C 11,6 C 96 % 1003,8 hPa 0,0 l/m 0,10 h 0,00 h 63 W/m 1,3 km/h (1 Bft) 96,73 %
06.08.2023 08:00 15,5 C 15,7 C 12,2 C 96 % 1004,3 hPa 0,0 l/m 0,13 h 0,00 h 122 W/m 0,0 km/h (0 Bft) 97,24 %
06.08.2023 09:00 16,6 C 17,4 C 13,3 C 93 % 1004,6 hPa 0,0 l/m 0,27 h 0,00 h 215 W/m 0,7 km/h (0 Bft) 99,01 %
06.08.2023 10:00 17,9 C 18,9 C 14,0 C 88 % 1004,9 hPa 0,2 l/m 0,33 h 0,13 h 310 W/m 9,3 km/h (2 Bft) 95,52 %
06.08.2023 11:00 17,1 C 16,7 C 12,9 C 92 % 1005,5 hPa 0,0 l/m 0,10 h 0,20 h 206 W/m 13,2 km/h (3 Bft) 97,87 %
06.08.2023 12:00 15,5 C 14,8 C 10,9 C 95 % 1006,3 hPa 2,0 l/m 0,00 h 0,90 h 166 W/m 21,1 km/h (4 Bft) 98,78 %
06.08.2023 13:00 15,2 C 14,7 C 11,0 C 97 % 1006,7 hPa 0,4 l/m 0,00 h 0,97 h 165 W/m 19,3 km/h (3 Bft) 95,56 %
06.08.2023 14:00 15,4 C 15,4 C 11,1 C 98 % 1007,2 hPa 0,2 l/m 0,00 h 0,93 h 234 W/m 21,7 km/h (4 Bft) 98,08 %
06.08.2023 15:00 15,3 C 14,9 C 11,0 C 97 % 1007,9 hPa 1,4 l/m 0,00 h 1,00 h 196 W/m 20,9 km/h (4 Bft) 97,73 %
06.08.2023 16:00 15,5 C 15,3 C 11,2 C 97 % 1008,6 hPa 0,8 l/m 0,00 h 1,00 h 215 W/m 16,8 km/h (3 Bft) 95,03 %
06.08.2023 17:00 15,5 C 15,2 C 11,2 C 97 % 1009,2 hPa 0,2 l/m 0,00 h 0,97 h 140 W/m 16,9 km/h (3 Bft) 98,72 %
06.08.2023 18:00 14,9 C 14,4 C 10,6 C 96 % 1010,0 hPa 0,4 l/m 0,00 h 1,00 h 81 W/m 17,5 km/h (3 Bft) 98,01 %
06.08.2023 19:00 14,7 C 14,0 C 10,5 C 97 % 1010,7 hPa 1,8 l/m 0,00 h 0,97 h 26 W/m 19,0 km/h (3 Bft) 95,03 %
06.08.2023 20:00 14,0 C 13,3 C 10,0 C 98 % 1011,5 hPa 0,4 l/m 0,00 h 1,00 h 13 W/m 23,4 km/h (4 Bft) 97,62 %
06.08.2023 21:00 13,6 C 12,9 C 9,6 C 98 % 1012,2 hPa 0,0 l/m 0,00 h 0,83 h 2 W/m 16,9 km/h (3 Bft) 96,84 %
06.08.2023 22:00 13,3 C 12,8 C 9,4 C 97 % 1012,5 hPa 0,0 l/m 0,00 h 0,00 h 0 W/m 17,4 km/h (3 Bft) 94,80 %
06.08.2023 23:00 13,2 C 12,8 C 9,3 C 97 % 1012,6 hPa 0,0 l/m 0,00 h 0,00 h 0 W/m 18,0 km/h (3 Bft) 99,38 %
Min-Datum _ 06.08.23 05.08.23 06.08.23 05.08.23 02.08.23 - - - - 01.08.23 05.08.23
_ Min-Zeit 22:46 04:44 23:36 14:08 14:14 - - - - 00:10 00:02
Minimum _ 13,2 C 12,2 C 8,9 C 65 % 989,8 hPa - - - - 0,0 km/h (0 Bft) 20,00 %
Max-Datum _ 02.08.23 04.08.23 05.08.23 01.08.23 05.08.23 04.08.23 01.08.23 03.08.23 04.08.23 03.08.23 31.07.23
_ Max-Zeit 17:00 14:34 12:16 03:38 00:38 17:14 18:08 07:30 14:40 06:24 00:12
Maximum _ 23,8 C 30,0 C 19,4 C 100 % 1017,6 hPa 7,6 l/m 0,07 h 0,08 h 1067 W/m 77,2 km/h
S-SW (9 Bft)
100,00 %
Durchschnitt _ 17,1 C 16,8 C 12,7 C 91 % 1005,4 hPa #54,0 l/m #16:36 h #36:32 h 171 W/m 12,7 km/h (3 Bft) 97,40 %
© 2023 W. Hausmann